Sabahat Telli — TCSQ6 — position and weather

sailwx.info

Track history (hours):
 
Tides and Currents Weather Stations Pressure Air Temp Water Temp Dewpoint Dewpoint Depression Visibility Wind Speed Wind Dir Waves Ship Positions

Sabahat Telli

Last reported at 2018-Apr-24 06:51 UTC. Time now 2018-Apr-27 06:53 UTC.
Position N 42°32' E 031°36'.

Length 99 m; draft 4.3 m.

Type: Tanker. MMSI: 271000961.

Date/timePositionNaut miles runAvg speedWind from/ knotsBaromVisibWave heightAir tempDewpointWater temp
2018-Apr-24 06:51N 42°32' E 031°36'1913.6
2018-Apr-24 05:26N 42°21' E 031°14'1213.4
2018-Apr-24 04:34N 42°14' E 031°01'113.5
2018-Apr-24 04:30N 42°14' E 030°60'613.4
2018-Apr-24 04:01N 42°10' E 030°53'713.4
2018-Apr-24 03:30N 42°06' E 030°45'8613.8
2018-Apr-23 21:18N 41°16' E 029°12'25 3.4
2018-Apr-23 14:00N 40°57' E 028°51'  
2018-Apr-21 08:05N 38°00' E 024°10'113.5
2018-Apr-21 08:00N 38°01' E 024°09'713.1
2018-Apr-21 07:30N 38°07' E 024°06'4 0.2
2018-Apr-20 09:35N 38°11' E 024°07'410.5
2018-Apr-20 09:10N 38°07' E 024°06'310.7
2018-Apr-20 08:55N 38°04' E 024°07'410.6
2018-Apr-20 08:30N 38°00' E 024°09'  
Track history (hours):
 
Tides and Currents Weather Stations Pressure Air Temp Water Temp Dewpoint Dewpoint Depression Visibility Wind Speed Wind Dir Waves Ship Positions

Sabahat Telli

Last reported at 2018-Apr-24 06:51 UTC. Time now 2018-Apr-27 06:53 UTC.
Position N 42°32' E 031°36'.

Length 99 m; draft 4.3 m.

Type: Tanker. MMSI: 271000961.

Date/timePositionNaut miles runAvg speedWind from/ knotsBaromVisibWave heightAir tempDewpointWater temp
2018-Apr-24 06:51N 42°32' E 031°36'1913.6
2018-Apr-24 05:26N 42°21' E 031°14'1213.4
2018-Apr-24 04:34N 42°14' E 031°01'113.5
2018-Apr-24 04:30N 42°14' E 030°60'613.4
2018-Apr-24 04:01N 42°10' E 030°53'713.4
2018-Apr-24 03:30N 42°06' E 030°45'8613.8
2018-Apr-23 21:18N 41°16' E 029°12'25 3.4
2018-Apr-23 14:00N 40°57' E 028°51'  
2018-Apr-21 08:05N 38°00' E 024°10'113.5
2018-Apr-21 08:00N 38°01' E 024°09'713.1
2018-Apr-21 07:30N 38°07' E 024°06'4 0.2
2018-Apr-20 09:35N 38°11' E 024°07'410.5
2018-Apr-20 09:10N 38°07' E 024°06'310.7
2018-Apr-20 08:55N 38°04' E 024°07'410.6
2018-Apr-20 08:30N 38°00' E 024°09'  

Dump ship's entire track history